Main page
METAR-TAF:

METAR-TAF

Airports :

Tunis, Tunisia

Tunis–Carthage International Airport

latitude: 36-50N, longitude: 010-14E, elevation: 3 m

Current weather observation

The report was made 32 minutes ago, at 20:00 UTC
Calm wind
Temperature 9°C
Humidity 76%
Pressure 1023 hPa
Visibility 10 km or more
Few clouds at a height of 2300 ft
Scattered clouds at a height of 4000 ft

METAR: DTTA 182000Z 00000KT 9999 FEW023 SCT040 09/05 Q1023 NOSIG

Time: 21:32 (20:32 UTC)

Forecast

The report was made 3 hours and 32 minutes ago, at 17:00 UTC
Forecast valid from 18 at 18 UTC to 19 at 18 UTC
Wind 10 kt from the West
Visibility 10 km or more
Scattered clouds at a height of 2300 ft
Scattered clouds at a height of 4000 ft
Probability 40% :
Temporary
from 18 at 18 UTC to 19 at 01 UTC
Scattered clouds at a height of 2600 ft, Cumulonimbus.
Becoming
from 19 at 11 UTC to 19 at 13 UTC
Wind 15 kt from the North/Northeast

TAF: DTTA 181700Z 1818/1918 26010KT 9999 SCT023 SCT040 PROB40 TEMPO 1818/1901 SCT026CB BECMG 1911/1913 02015KT

Weather observations and forecasts of more than 4000 airports (METAR and TAF reports).

The available stations are represented by yellow and red dots on the map.

Hover mouse over dot to see the name of the station.

Then click to see weather observations and forecasts.

To change the map : click on the green buttons with a black cross to zoom in, on the green button with a dash to zoom out, or on the green arrows for adjacent maps.


METAR-TAF: